Time;durP1;ratioP1;P1;durP2;ratioP2;P2;SDS_P1;SDS_P2;PMS_P1;PMS_P2;Temp;Humidity;BMP_temperature;BMP_pressure;BME280_temperature;BME280_humidity;BME280_pressure;Samples;Min_cycle;Max_cycle;Signal;HPM_P1;HPM_P2
2021/11/07 00:01:27;;;;;;;34.40;21.02;;;;;;;6.17;79.57;101864.68;1793508;78;20982;-75
2021/11/07 00:03:53;;;;;;;33.55;19.92;;;;;;;6.18;79.48;101865.08;1797243;78;20959;-76
2021/11/07 00:06:22;;;;;;;27.60;20.43;;;;;;;6.19;79.30;101863.75;1780813;77;20856;-75
2021/11/07 00:08:54;;;;;;;34.75;21.60;;;;;;;6.15;79.18;101862.55;1728855;81;21178;-75
2021/11/07 00:11:22;;;;;;;29.85;20.52;;;;;;;6.12;79.11;101858.27;1759210;79;20873;-74
2021/11/07 00:13:42;;;;;;;35.73;21.27;;;;;;;6.09;79.00;101849.66;1801094;78;21352;-75
2021/11/07 00:16:15;;;;;;;36.90;20.85;;;;;;;6.05;78.94;101853.20;1810049;78;20920;-75
2021/11/07 00:18:45;;;;;;;44.03;25.27;;;;;;;6.01;78.83;101851.13;1811017;78;21425;-76
2021/11/07 00:21:13;;;;;;;35.05;21.27;;;;;;;5.96;78.82;101850.38;1810376;77;21712;-75
2021/11/07 00:23:48;;;;;;;35.10;22.37;;;;;;;5.92;78.84;101852.59;1798651;77;21456;-75
2021/11/07 00:26:30;;;;;;;37.15;22.15;;;;;;;5.88;78.93;101853.09;1772714;80;20974;-75
2021/11/07 00:29:06;;;;;;;35.45;22.20;;;;;;;5.86;79.08;101850.11;1764175;79;20904;-75
2021/11/07 00:37:10;;;;;;;36.83;25.15;;;;;;;5.77;78.83;101851.16;1793620;77;21434;-74
2021/11/07 00:42:34;;;;;;;31.95;23.30;;;;;;;5.68;78.49;101851.34;1800093;78;20974;-73
2021/11/07 00:44:59;;;;;;;32.58;21.48;;;;;;;5.61;78.66;101848.00;1798059;77;20849;-75
2021/11/07 00:47:40;;;;;;;33.90;21.15;;;;;;;5.58;78.76;101850.23;1731161;81;21137;-74
2021/11/07 00:50:08;;;;;;;29.52;20.35;;;;;;;5.54;78.98;101846.42;1770828;80;20980;-74
2021/11/07 00:52:52;;;;;;;33.63;22.40;;;;;;;5.54;79.15;101850.32;1765226;80;21012;-75
2021/11/07 00:55:17;;;;;;;30.92;21.23;;;;;;;5.52;79.07;101850.79;1739300;81;20900;-74
2021/11/07 00:58:04;;;;;;;40.33;22.45;;;;;;;5.49;79.08;101853.02;1730867;81;21526;-75
2021/11/07 01:03:03;;;;;;;38.90;24.25;;;;;;;5.42;79.03;101854.44;1728612;80;20983;-75
2021/11/07 01:05:32;;;;;;;33.60;21.20;;;;;;;5.35;78.84;101856.30;1747015;79;20929;-75
2021/11/07 01:07:59;;;;;;;31.20;21.40;;;;;;;5.30;78.83;101854.23;1728062;81;20960;-75
2021/11/07 01:10:30;;;;;;;28.30;21.25;;;;;;;5.22;78.86;101855.65;1778063;80;21037;-74
2021/11/07 01:12:57;;;;;;;35.00;20.55;;;;;;;5.17;79.23;101851.84;1810229;79;21157;-74
2021/11/07 01:15:26;;;;;;;33.80;20.90;;;;;;;5.17;79.80;101853.59;1810015;79;21042;-75
2021/11/07 01:17:54;;;;;;;31.25;21.17;;;;;;;5.19;80.05;101853.12;1810106;79;20802;-76
2021/11/07 01:20:26;;;;;;;38.73;24.02;;;;;;;5.23;80.04;101859.13;1806007;78;20940;-76
2021/11/07 01:22:57;;;;;;;33.85;23.05;;;;;;;5.26;80.03;101853.87;1779416;77;20883;-76
2021/11/07 01:25:19;;;;;;;47.43;25.52;;;;;;;5.27;79.89;101850.36;1810198;79;21158;-75
2021/11/07 01:27:47;;;;;;;42.62;26.50;;;;;;;5.29;79.74;101848.59;1809759;77;20876;-75
2021/11/07 01:30:22;;;;;;;46.48;26.70;;;;;;;5.30;79.52;101859.43;1810458;79;20899;-76
2021/11/07 01:32:58;;;;;;;45.60;28.92;;;;;;;5.29;79.23;101854.68;1792852;78;20946;-74
2021/11/07 01:35:29;;;;;;;60.38;30.80;;;;;;;5.27;79.05;101861.65;1806665;79;20892;-74
2021/11/07 01:40:23;;;;;;;44.00;27.85;;;;;;;5.23;78.94;101859.98;1802607;77;21056;-75
2021/11/07 01:43:00;;;;;;;58.35;34.20;;;;;;;5.23;78.83;101858.69;1776459;79;20971;-75
2021/11/07 01:45:41;;;;;;;52.88;34.45;;;;;;;5.23;78.71;101860.44;1750278;80;20884;-75
2021/11/07 01:48:14;;;;;;;61.33;38.20;;;;;;;5.23;78.67;101856.53;1803945;77;20884;-74
2021/11/07 01:50:44;;;;;;;71.10;39.78;;;;;;;5.22;78.58;101858.25;1810074;79;21075;-75
2021/11/07 01:53:19;;;;;;;71.10;41.83;;;;;;;5.22;78.37;101862.16;1809816;79;20908;-75
2021/11/07 01:55:38;;;;;;;65.28;40.33;;;;;;;5.19;78.08;101857.02;1804156;77;20967;-75
2021/11/07 01:58:05;;;;;;;63.52;37.65;;;;;;;5.17;77.88;101858.78;1800129;77;21374;-75
2021/11/07 02:00:32;;;;;;;70.10;40.30;;;;;;;5.13;77.78;101858.42;1775433;79;20851;-75
2021/11/07 02:03:00;;;;;;;58.17;35.35;;;;;;;5.09;77.72;101858.93;1803193;78;21162;-74
2021/11/07 02:05:27;;;;;;;55.85;33.85;;;;;;;5.06;77.70;101852.91;1793327;77;21400;-76
2021/11/07 02:07:54;;;;;;;53.35;34.35;;;;;;;5.05;77.70;101851.22;1792433;77;20970;-75
2021/11/07 02:10:21;;;;;;;68.80;36.98;;;;;;;5.02;77.69;101850.80;1804596;77;20936;-74
2021/11/07 02:12:49;;;;;;;64.70;38.05;;;;;;;5.01;77.63;101848.25;1804289;78;20912;-75
2021/11/07 02:15:19;;;;;;;55.95;38.05;;;;;;;5.00;77.52;101853.86;1810061;77;22119;-74
2021/11/07 02:17:45;;;;;;;57.95;36.48;;;;;;;4.96;77.41;101850.92;1804187;78;20900;-75
2021/11/07 02:20:30;;;;;;;54.75;33.25;;;;;;;4.93;77.33;101849.66;1795508;77;21013;-75
2021/11/07 02:23:06;;;;;;;52.45;31.57;;;;;;;4.90;77.29;101847.13;1793043;78;20946;-75
2021/11/07 02:25:32;;;;;;;51.77;32.08;;;;;;;4.88;77.37;101855.38;1795218;77;21107;-74
2021/11/07 02:27:59;;;;;;;48.70;27.48;;;;;;;4.85;77.45;101847.20;1754223;81;21294;-75
2021/11/07 02:30:26;;;;;;;54.30;28.02;;;;;;;4.85;77.50;101845.05;1739394;81;20884;-75
2021/11/07 02:32:55;;;;;;;46.65;29.95;;;;;;;4.85;77.57;101841.16;1768131;80;20884;-74
2021/11/07 02:35:22;;;;;;;50.30;32.63;;;;;;;4.84;77.57;101838.97;1699389;83;20959;-74
2021/11/07 02:37:49;;;;;;;52.85;31.95;;;;;;;4.82;77.53;101844.63;1746284;81;21529;-74
2021/11/07 02:40:18;;;;;;;52.78;33.60;;;;;;;4.82;77.36;101853.73;1706989;83;21525;-74
2021/11/07 02:42:46;;;;;;;52.88;29.92;;;;;;;4.80;77.21;101841.64;1744575;80;20919;-75
2021/11/07 02:45:14;;;;;;;46.05;28.35;;;;;;;4.75;76.72;101847.77;1765715;79;20909;-74
2021/11/07 02:47:41;;;;;;;44.95;28.52;;;;;;;4.69;76.23;101849.19;1771916;79;20967;-74
2021/11/07 02:50:10;;;;;;;40.03;28.10;;;;;;;4.61;76.23;101843.70;1760268;80;21433;-74
2021/11/07 02:52:37;;;;;;;50.17;25.55;;;;;;;4.56;76.56;101842.47;1749556;80;21206;-73
2021/11/07 02:55:05;;;;;;;41.35;26.00;;;;;;;4.51;76.74;101842.95;1763885;79;21023;-76
2021/11/07 02:57:32;;;;;;;43.23;26.02;;;;;;;4.49;77.01;101847.31;1741008;81;20885;-75
2021/11/07 03:00:03;;;;;;;46.75;31.50;;;;;;;4.46;76.85;101847.37;1753542;80;20939;-73
2021/11/07 03:02:28;;;;;;;51.53;31.70;;;;;;;4.44;77.12;101849.12;1750660;80;20986;-74
2021/11/07 03:04:55;;;;;;;78.62;44.88;;;;;;;4.42;77.37;101842.65;1709981;83;21132;-75
2021/11/07 03:07:22;;;;;;;76.72;39.63;;;;;;;4.42;77.33;101851.73;1712386;82;21434;-74
2021/11/07 03:09:49;;;;;;;62.55;35.98;;;;;;;4.41;77.23;101852.63;1760095;80;20960;-75
2021/11/07 03:12:16;;;;;;;61.48;32.35;;;;;;;4.40;77.17;101853.95;1768713;79;20955;-73
2021/11/07 03:14:48;;;;;;;49.48;29.52;;;;;;;4.39;77.19;101858.73;1794609;80;20939;-73
2021/11/07 03:17:19;;;;;;;55.65;28.85;;;;;;;4.39;77.21;101854.84;1778913;79;21140;-74
2021/11/07 03:19:47;;;;;;;51.73;31.07;;;;;;;4.39;77.21;101851.80;1769886;80;20863;-76
2021/11/07 03:22:19;;;;;;;67.53;39.35;;;;;;;4.42;77.23;101853.48;1772468;80;20995;-76
2021/11/07 03:24:51;;;;;;;57.45;38.05;;;;;;;4.45;77.20;101853.46;1763302;80;20938;-75
2021/11/07 03:28:53;;;;;;;60.60;40.78;;;;;;;4.54;77.00;101847.68;1798505;79;23317;-75
2021/11/07 03:33:54;;;;;;;60.63;35.20;;;;;;;4.52;76.61;101849.88;1758255;81;21565;-75
2021/11/07 03:36:21;;;;;;;51.02;32.78;;;;;;;4.51;76.47;101841.24;1757003;81;20959;-75
2021/11/07 03:38:49;;;;;;;44.30;29.85;;;;;;;4.53;76.38;101844.64;1756988;80;20972;-76
2021/11/07 03:41:17;;;;;;;50.17;28.10;;;;;;;4.52;76.32;101853.78;1758315;81;21418;-74
2021/11/07 03:43:44;;;;;;;48.08;28.50;;;;;;;4.53;76.32;101856.78;1758334;81;20940;-76
2021/11/07 03:46:11;;;;;;;48.28;28.98;;;;;;;4.50;76.29;101847.75;1758147;80;21158;-75
2021/11/07 03:48:38;;;;;;;46.85;31.10;;;;;;;4.55;76.28;101850.68;1758232;81;20864;-75
2021/11/07 03:51:07;;;;;;;56.33;33.78;;;;;;;4.60;76.20;101852.35;1758404;80;20920;-76
2021/11/07 03:53:34;;;;;;;54.40;35.15;;;;;;;4.61;76.05;101857.53;1758537;81;20876;-74
2021/11/07 03:56:01;;;;;;;62.48;35.50;;;;;;;4.64;75.90;101856.63;1758315;81;20892;-75
2021/11/07 03:58:29;;;;;;;61.88;35.90;;;;;;;4.63;75.76;101864.02;1758230;81;21154;-77
2021/11/07 04:00:56;;;;;;;67.45;34.78;;;;;;;4.61;75.53;101875.72;1758141;80;20968;-75
2021/11/07 04:03:23;;;;;;;54.95;33.55;;;;;;;4.59;75.49;101876.18;1758241;81;21026;-75
2021/11/07 04:05:51;;;;;;;58.02;31.68;;;;;;;4.56;75.49;101873.20;1758282;81;20940;-74
2021/11/07 04:08:18;;;;;;;59.60;30.32;;;;;;;4.54;75.46;101867.16;1758146;81;20888;-76
2021/11/07 04:10:46;;;;;;;48.30;29.87;;;;;;;4.51;75.46;101867.22;1758197;81;21178;-74
2021/11/07 04:13:14;;;;;;;55.85;34.25;;;;;;;4.53;75.50;101871.07;1758142;81;20967;-74
2021/11/07 04:15:42;;;;;;;61.42;37.38;;;;;;;4.52;75.46;101865.47;1758213;81;20928;-76
2021/11/07 04:18:09;;;;;;;66.10;38.30;;;;;;;4.52;75.35;101868.92;1758024;81;20916;-76
2021/11/07 04:20:37;;;;;;;59.67;38.48;;;;;;;4.51;75.26;101864.62;1758249;81;20837;-76
2021/11/07 04:23:05;;;;;;;57.35;34.08;;;;;;;4.50;75.19;101871.13;1758375;80;21037;-76
2021/11/07 04:25:32;;;;;;;64.15;35.17;;;;;;;4.47;74.98;101867.25;1758421;81;21418;-75
2021/11/07 04:27:58;;;;;;;62.03;32.65;;;;;;;4.42;74.94;101867.33;1750911;81;20858;-77
2021/11/07 04:30:26;;;;;;;48.83;30.15;;;;;;;4.37;75.03;101867.84;1745057;82;21442;-76
2021/11/07 04:32:53;;;;;;;60.88;32.90;;;;;;;4.32;75.13;101867.05;1745285;80;21007;-76
2021/11/07 04:35:20;;;;;;;43.20;26.02;;;;;;;4.29;75.26;101869.26;1745247;82;21147;-75
2021/11/07 04:37:47;;;;;;;49.63;30.27;;;;;;;4.27;75.36;101865.82;1745077;82;20913;-76
2021/11/07 04:40:15;;;;;;;54.80;32.03;;;;;;;4.25;75.44;101869.33;1744484;82;20924;-77
2021/11/07 04:42:46;;;;;;;46.40;32.50;;;;;;;4.25;75.50;101879.70;1744668;80;21561;-75
2021/11/07 04:45:13;;;;;;;51.53;32.80;;;;;;;4.24;75.44;101867.59;1744674;81;21011;-75
2021/11/07 04:47:41;;;;;;;53.35;31.55;;;;;;;4.23;75.41;101863.29;1744520;80;21134;-74
2021/11/07 04:50:08;;;;;;;46.45;29.18;;;;;;;4.21;75.30;101863.30;1745037;81;21350;-75
2021/11/07 04:52:35;;;;;;;37.55;25.48;;;;;;;4.19;75.28;101873.29;1744577;82;20980;-76
2021/11/07 04:55:03;;;;;;;44.48;24.92;;;;;;;4.15;75.34;101867.27;1744574;82;21000;-74
2021/11/07 04:57:30;;;;;;;38.58;24.60;;;;;;;4.12;75.38;101864.73;1744592;82;20889;-75
2021/11/07 04:59:57;;;;;;;38.48;25.25;;;;;;;4.10;75.49;101872.97;1744626;81;21502;-75
2021/11/07 05:02:24;;;;;;;39.90;25.52;;;;;;;4.08;75.57;101871.69;1744603;80;20976;-73
2021/11/07 05:04:54;;;;;;;46.42;30.05;;;;;;;4.08;75.71;101875.58;1744510;80;20878;-75
2021/11/07 05:07:19;;;;;;;49.05;32.63;;;;;;;4.08;75.73;101875.58;1744393;81;21564;-75
2021/11/07 05:09:46;;;;;;;53.10;34.30;;;;;;;4.10;75.70;101874.27;1744781;80;20936;-75
2021/11/07 05:12:15;;;;;;;52.65;28.85;;;;;;;4.11;75.61;101879.86;1744600;82;20925;-75
2021/11/07 05:14:42;;;;;;;45.25;25.20;;;;;;;4.09;75.47;101877.31;1744534;82;20889;-75
2021/11/07 05:17:09;;;;;;;30.37;20.48;;;;;;;4.09;75.40;101886.81;1744440;82;20881;-74
2021/11/07 05:19:36;;;;;;;38.20;19.40;;;;;;;4.09;75.46;101883.80;1744553;82;20972;-75
2021/11/07 05:22:04;;;;;;;28.15;18.55;;;;;;;4.11;75.51;101891.13;1744911;81;20906;-76
2021/11/07 05:24:32;;;;;;;24.55;19.60;;;;;;;4.14;75.58;101885.04;1744723;82;21143;-76
2021/11/07 05:27:00;;;;;;;36.23;25.02;;;;;;;4.17;75.54;101890.18;1744813;81;20873;-76
2021/11/07 05:29:27;;;;;;;58.10;36.25;;;;;;;4.19;75.51;101897.51;1744528;82;20893;-76
2021/11/07 05:31:55;;;;;;;37.25;24.05;;;;;;;4.23;75.54;101903.09;1744609;82;21358;-76
2021/11/07 05:34:22;;;;;;;23.50;16.70;;;;;;;4.25;75.43;101900.03;1744587;80;21110;-76
2021/11/07 05:36:48;;;;;;;20.80;15.72;;;;;;;4.29;75.36;101902.13;1744943;82;21639;-74
2021/11/07 05:39:15;;;;;;;18.45;13.75;;;;;;;4.34;75.24;101910.30;1744430;81;20957;-75
2021/11/07 05:41:42;;;;;;;19.45;12.55;;;;;;;4.47;75.25;101908.40;1744720;82;20966;-75
2021/11/07 05:44:12;;;;;;;19.35;11.63;;;;;;;4.86;75.47;101903.48;1744569;81;20874;-75
2021/11/07 05:46:38;;;;;;;17.02;12.23;;;;;;;5.52;74.85;101898.47;1744846;82;20850;-76
2021/11/07 05:49:06;;;;;;;14.75;10.93;;;;;;;6.27;73.47;101899.19;1744655;82;21019;-75
2021/11/07 05:51:35;;;;;;;17.55;11.70;;;;;;;6.97;71.32;101897.58;1744376;82;21003;-77
2021/11/07 05:54:02;;;;;;;12.78;11.33;;;;;;;7.64;69.43;101893.67;1734252;82;21427;-76
2021/11/07 05:56:30;;;;;;;15.80;11.90;;;;;;;8.28;67.28;101890.98;1744541;82;20905;-76
2021/11/07 05:58:58;;;;;;;16.52;12.53;;;;;;;8.58;65.21;101893.62;1744582;82;20913;-76
2021/11/07 06:01:25;;;;;;;16.57;11.43;;;;;;;8.49;64.02;101895.18;1744902;82;21492;-77
2021/11/07 06:03:52;;;;;;;14.75;12.03;;;;;;;8.24;63.68;101891.97;1744423;82;20884;-75
2021/11/07 06:06:19;;;;;;;22.10;13.75;;;;;;;7.97;63.82;101894.09;1744854;82;20927;-75
2021/11/07 06:08:46;;;;;;;17.55;13.98;;;;;;;7.64;64.25;101896.73;1744477;82;20949;-76
2021/11/07 06:11:15;;;;;;;18.45;13.78;;;;;;;7.33;64.85;101891.02;1744926;82;20936;-78
2021/11/07 06:13:42;;;;;;;17.80;14.13;;;;;;;7.10;65.50;101890.31;1744558;82;21143;-73
2021/11/07 06:16:10;;;;;;;19.92;13.00;;;;;;;6.87;66.09;101896.11;1744711;82;20893;-76
2021/11/07 06:18:37;;;;;;;17.90;12.35;;;;;;;6.70;66.75;101900.41;1744442;82;20889;-77
2021/11/07 06:21:05;;;;;;;15.35;13.18;;;;;;;6.60;67.39;101897.59;1744483;81;20961;-76
2021/11/07 06:23:32;;;;;;;21.33;15.93;;;;;;;6.53;67.97;101893.41;1744877;82;20932;-75
2021/11/07 06:26:00;;;;;;;23.65;18.60;;;;;;;6.51;68.43;101894.73;1744512;82;21541;-75
2021/11/07 06:28:28;;;;;;;24.98;19.25;;;;;;;6.51;68.74;101891.28;1744530;82;21011;-76
2021/11/07 06:30:55;;;;;;;31.33;21.45;;;;;;;6.51;68.87;101890.83;1744488;82;20984;-77
2021/11/07 06:33:22;;;;;;;28.20;21.70;;;;;;;6.52;69.05;101898.23;1744675;82;20885;-77
2021/11/07 06:35:49;;;;;;;28.98;19.67;;;;;;;6.53;69.16;101903.84;1744585;82;20869;-79
2021/11/07 06:38:16;;;;;;;26.37;20.55;;;;;;;6.52;69.36;101894.32;1744315;82;21156;-84
2021/11/07 06:40:44;;;;;;;31.33;23.00;;;;;;;6.53;69.35;101890.80;1744871;82;21058;-85
2021/11/07 06:43:19;;;;;;;29.07;19.52;;;;;;;6.54;69.46;101882.11;1744397;81;20948;-84
2021/11/07 06:45:47;;;;;;;36.55;20.50;;;;;;;6.57;69.57;101891.16;1744714;82;21579;-82
2021/11/07 06:48:16;;;;;;;27.35;16.82;;;;;;;6.61;69.75;101893.65;1744910;82;21554;-82
2021/11/07 06:50:42;;;;;;;34.43;20.45;;;;;;;6.67;69.91;101889.18;1734253;82;21172;-82
2021/11/07 06:53:10;;;;;;;35.43;20.55;;;;;;;6.71;70.08;101885.16;1744545;81;20881;-84
2021/11/07 06:55:38;;;;;;;40.48;24.25;;;;;;;6.77;70.14;101885.47;1744528;81;20905;-85
2021/11/07 06:58:05;;;;;;;37.85;24.50;;;;;;;6.83;69.87;101889.25;1744502;80;20900;-81
2021/11/07 07:00:34;;;;;;;34.50;23.27;;;;;;;6.85;69.70;101887.02;1744564;82;20984;-83
2021/11/07 07:03:00;;;;;;;38.45;24.77;;;;;;;6.89;69.52;101885.62;1744723;81;21344;-81
2021/11/07 07:05:29;;;;;;;40.98;25.80;;;;;;;6.91;69.21;101887.74;1744629;82;20888;-83
2021/11/07 07:08:05;;;;;;;41.15;25.72;;;;;;;6.90;69.38;101880.83;1744781;82;20940;-82
2021/11/07 07:10:35;;;;;;;44.45;29.12;;;;;;;6.95;69.47;101888.09;1744406;81;21011;-81
2021/11/07 07:15:41;;;;;;;53.08;32.70;;;;;;;7.05;69.51;101881.77;1746458;82;21123;-80
2021/11/07 07:20:55;;;;;;;65.20;37.05;;;;;;;7.20;69.39;101883.98;1744632;81;20865;-83
2021/11/07 07:23:54;;;;;;;64.55;37.35;;;;;;;7.29;69.19;101882.86;1744641;81;20878;-83
2021/11/07 07:26:38;;;;;;;61.05;34.55;;;;;;;7.38;68.96;101885.69;1743313;82;20933;-83
2021/11/07 07:28:57;;;;;;;58.10;35.38;;;;;;;7.47;68.86;101882.86;1743079;82;21323;-81
2021/11/07 07:31:29;;;;;;;54.80;32.23;;;;;;;7.56;68.75;101876.50;1744967;81;20924;-85
2021/11/07 07:34:04;;;;;;;53.95;28.92;;;;;;;7.64;68.81;101879.77;1744256;81;20987;-85
2021/11/07 07:36:28;;;;;;;53.78;28.57;;;;;;;7.70;68.72;101883.53;1745026;81;20965;-86
2021/11/07 07:38:57;;;;;;;61.28;34.63;;;;;;;7.75;68.54;101879.48;1744433;82;20889;-84
2021/11/07 07:41:24;;;;;;;57.67;33.65;;;;;;;7.79;68.35;101878.50;1745076;82;21112;-83
2021/11/07 07:43:51;;;;;;;66.40;39.70;;;;;;;7.84;68.35;101883.98;1744529;82;20932;-83
2021/11/07 07:46:22;;;;;;;47.43;28.95;;;;;;;7.92;68.16;101883.78;1744517;82;21490;-84
2021/11/07 07:48:49;;;;;;;46.75;29.02;;;;;;;7.99;68.21;101878.78;1743506;81;20913;-83
2021/11/07 07:51:17;;;;;;;72.85;41.88;;;;;;;8.08;68.17;101873.73;1743983;80;20940;-84
2021/11/07 07:53:45;;;;;;;81.63;51.35;;;;;;;8.17;68.16;101878.69;1744180;82;21805;-83
2021/11/07 07:56:12;;;;;;;84.65;55.95;;;;;;;8.26;67.92;101871.88;1744923;82;20924;-82
2021/11/07 07:58:39;;;;;;;76.55;48.78;;;;;;;8.37;67.82;101876.78;1744399;82;20896;-83
2021/11/07 08:01:07;;;;;;;71.80;45.78;;;;;;;8.45;67.39;101879.22;1744575;82;20877;-84
2021/11/07 08:03:34;;;;;;;60.78;40.50;;;;;;;8.52;66.96;101885.11;1744426;81;21541;-82
2021/11/07 08:06:02;;;;;;;49.63;32.48;;;;;;;8.59;66.69;101880.08;1744372;81;22086;-83
2021/11/07 08:08:29;;;;;;;30.80;20.52;;;;;;;8.62;66.58;101875.59;1744521;82;20936;-82
2021/11/07 08:10:56;;;;;;;19.05;13.55;;;;;;;8.65;66.70;101875.98;1744846;81;20984;-83
2021/11/07 08:13:23;;;;;;;16.42;12.18;;;;;;;8.67;66.59;101870.22;1744284;82;20980;-82
2021/11/07 08:15:52;;;;;;;14.45;10.53;;;;;;;8.68;66.44;101866.25;1743710;81;21040;-84
2021/11/07 08:18:20;;;;;;;17.27;11.57;;;;;;;8.70;66.44;101876.22;1744785;82;21477;-83
2021/11/07 08:20:48;;;;;;;16.12;10.70;;;;;;;8.73;66.31;101867.41;1744818;81;21019;-81
2021/11/07 08:23:15;;;;;;;17.25;11.03;;;;;;;8.76;66.54;101871.25;1744717;82;20941;-83
2021/11/07 08:25:43;;;;;;;12.15;10.03;;;;;;;8.83;66.85;101872.76;1744921;82;20901;-81
2021/11/07 08:28:09;;;;;;;11.12;9.30;;;;;;;8.91;66.59;101870.76;1745162;80;20972;-83
2021/11/07 08:30:40;;;;;;;12.73;9.30;;;;;;;9.00;66.21;101873.49;1757828;80;21813;-85
2021/11/07 08:33:08;;;;;;;16.80;9.15;;;;;;;9.07;65.98;101873.72;1758051;81;20975;-83
2021/11/07 08:35:39;;;;;;;12.30;9.65;;;;;;;9.15;65.47;101878.67;1757942;81;20944;-84
2021/11/07 08:38:08;;;;;;;14.25;7.78;;;;;;;9.24;64.69;101863.12;1758285;80;21011;-83
2021/11/07 08:40:46;;;;;;;19.52;10.15;;;;;;;9.31;64.46;101844.97;1758733;81;21128;-84
2021/11/07 09:05:03;;;;;;;8.83;6.10;;;;;;;9.77;60.37;101834.63;1757812;80;21405;-72
2021/11/07 09:10:06;;;;;;;7.47;5.72;;;;;;;9.88;60.18;101818.89;1758048;80;21484;-79
2021/11/07 09:12:33;;;;;;;7.67;5.47;;;;;;;10.02;59.54;101829.31;1757829;80;21006;-76
2021/11/07 09:15:01;;;;;;;6.72;4.85;;;;;;;10.44;58.98;101815.47;1758074;81;20901;-78
2021/11/07 09:17:29;;;;;;;9.33;5.62;;;;;;;11.10;57.42;101809.64;1758108;81;20924;-79
2021/11/07 09:19:57;;;;;;;11.20;5.87;;;;;;;11.87;55.79;101804.88;1757929;81;20876;-78
2021/11/07 09:22:33;;;;;;;8.95;6.30;;;;;;;12.68;54.61;101799.33;1757886;81;21158;-79
2021/11/07 09:27:46;;;;;;;7.10;4.70;;;;;;;14.25;50.08;101791.41;1757969;81;20948;-79
2021/11/07 09:37:56;;;;;;;5.78;4.85;;;;;;;16.93;44.11;101777.47;1744435;82;20908;-79
2021/11/07 09:40:23;;;;;;;8.33;4.83;;;;;;;17.48;42.85;101776.78;1744709;80;20925;-78
2021/11/07 09:43:11;;;;;;;5.15;4.70;;;;;;;17.96;41.70;101775.09;1744473;81;20865;-81
2021/11/07 09:45:32;;;;;;;5.20;4.55;;;;;;;18.37;41.11;101761.89;1743803;81;20992;-82
2021/11/07 09:48:08;;;;;;;5.15;4.35;;;;;;;18.84;40.03;101763.27;1744900;81;21142;-81
2021/11/07 09:50:27;;;;;;;4.95;4.10;;;;;;;19.20;39.05;101761.38;1743384;81;20940;-79
2021/11/07 09:52:55;;;;;;;5.53;4.22;;;;;;;19.30;38.51;101753.05;1744584;82;20999;-79
2021/11/07 09:55:25;;;;;;;7.30;5.03;;;;;;;19.28;37.59;101757.64;1744891;82;20846;-82
2021/11/07 09:57:53;;;;;;;4.20;3.80;;;;;;;19.25;37.03;101754.74;1744505;81;20917;-82
2021/11/07 10:00:34;;;;;;;4.80;3.58;;;;;;;19.25;36.84;101744.56;1744757;81;21522;-81
2021/11/07 10:03:01;;;;;;;5.95;3.27;;;;;;;19.22;36.55;101746.98;1744047;81;20921;-82
2021/11/07 10:05:29;;;;;;;6.05;4.25;;;;;;;19.07;36.73;101748.19;1744634;81;20906;-83
2021/11/07 10:08:01;;;;;;;3.50;3.20;;;;;;;18.98;36.76;101738.27;1708742;84;20991;-80
2021/11/07 10:10:32;;;;;;;6.50;3.45;;;;;;;18.97;37.06;101733.94;1709129;84;21366;-82
2021/11/07 10:13:09;;;;;;;4.42;3.10;;;;;;;18.83;36.98;101728.34;1709178;82;21157;-81
2021/11/07 10:18:08;;;;;;;6.20;3.33;;;;;;;18.39;37.77;101726.77;1708811;84;20995;-81
2021/11/07 10:20:43;;;;;;;4.33;3.37;;;;;;;18.18;37.47;101721.73;1708312;84;20983;-82
2021/11/07 10:23:26;;;;;;;4.70;3.10;;;;;;;17.99;37.34;101717.80;1708605;84;20928;-81
2021/11/07 10:26:11;;;;;;;7.10;3.30;;;;;;;17.77;38.01;101707.87;1708531;82;21228;-81
2021/11/07 10:28:47;;;;;;;5.45;3.95;;;;;;;17.80;38.41;101709.45;1707607;84;20916;-80
2021/11/07 10:34:08;;;;;;;4.90;2.70;;;;;;;18.10;37.46;101699.75;1751584;81;20951;-80
2021/11/07 10:37:17;;;;;;;3.80;3.12;;;;;;;18.25;36.67;101702.20;1714760;83;20959;-81
2021/11/07 10:42:16;;;;;;;6.10;2.95;;;;;;;18.33;36.71;101694.02;1752562;82;21355;-80
2021/11/07 10:45:04;;;;;;;4.47;2.77;;;;;;;18.43;36.63;101690.17;1751183;81;21391;-81
2021/11/07 10:48:03;;;;;;;3.35;2.33;;;;;;;18.50;36.13;101695.87;1712476;82;20948;-82
2021/11/07 10:53:04;;;;;;;4.85;3.55;;;;;;;18.45;35.95;101678.95;1716927;82;21772;-84
2021/11/07 10:55:33;;;;;;;3.92;2.72;;;;;;;18.21;35.79;101679.03;1716327;83;21414;-83
2021/11/07 10:58:04;;;;;;;3.00;2.37;;;;;;;17.74;35.81;101672.74;1716907;83;21409;-84
2021/11/07 11:00:44;;;;;;;5.65;4.30;;;;;;;17.30;35.86;101669.73;1716407;83;20939;-82
2021/11/07 11:03:22;;;;;;;3.45;2.50;;;;;;;16.88;36.91;101668.31;1752695;81;21015;-80
2021/11/07 11:05:55;;;;;;;4.95;1.90;;;;;;;16.47;37.69;101657.41;1752505;82;21143;-79
2021/11/07 11:08:36;;;;;;;3.22;2.00;;;;;;;16.14;38.52;101660.92;1753220;82;20944;-80
2021/11/07 11:11:20;;;;;;;2.92;2.50;;;;;;;15.92;38.56;101658.00;1754719;81;20904;-81
2021/11/07 11:13:51;;;;;;;2.95;2.40;;;;;;;15.38;40.36;101660.10;1753369;81;20893;-78
2021/11/07 11:16:31;;;;;;;3.50;2.37;;;;;;;15.38;40.36;101660.10;1752493;80;20929;-80
2021/11/07 11:30:38;;;;;;;6.53;4.20;;;;;;;14.50;41.40;101620.60;1716298;83;21019;-78
2021/11/07 11:33:15;;;;;;;5.75;4.00;;;;;;;14.41;42.04;101618.52;1714144;83;21186;-80
2021/11/07 11:35:56;;;;;;;3.72;3.35;;;;;;;14.42;42.15;101614.92;1716066;83;20916;-81
2021/11/07 11:38:27;;;;;;;7.00;3.25;;;;;;;14.38;41.98;101607.29;1714897;83;21014;-82
2021/11/07 11:43:37;;;;;;;6.53;3.77;;;;;;;14.28;42.88;101597.77;1701632;84;21036;-80
2021/11/07 11:46:18;;;;;;;3.00;2.55;;;;;;;14.23;42.95;101587.48;1739539;82;21311;-81
2021/11/07 11:58:00;;;;;;;5.17;3.17;;;;;;;14.35;43.65;101595.13;1739347;82;20964;-77
2021/11/07 12:04:08;;;;;;;3.62;2.60;;;;;;;14.54;42.27;101586.09;1738960;82;20924;-79
2021/11/07 12:06:46;;;;;;;4.42;2.55;;;;;;;14.54;42.21;101575.08;1724340;82;21142;-79
2021/11/07 12:12:08;;;;;;;3.77;3.05;;;;;;;14.42;42.81;101571.86;1739971;82;20940;-78
2021/11/07 12:15:14;;;;;;;5.50;2.52;;;;;;;14.28;43.30;101570.91;1739071;82;21124;-77
2021/11/07 12:17:33;;;;;;;5.17;2.55;;;;;;;14.15;43.50;101577.02;1734876;82;20877;-77
2021/11/07 12:20:01;;;;;;;5.15;2.20;;;;;;;14.04;43.66;101579.81;1747967;82;20956;-77
2021/11/07 12:22:32;;;;;;;5.20;2.67;;;;;;;13.98;43.88;101586.76;1752796;82;21378;-79
2021/11/07 12:25:05;;;;;;;3.83;3.10;;;;;;;13.93;43.72;101588.83;1716104;82;20935;-77
2021/11/07 12:27:51;;;;;;;3.75;2.67;;;;;;;13.90;43.93;101583.74;1752578;81;23755;-77
2021/11/07 12:30:26;;;;;;;5.75;2.85;;;;;;;13.88;44.10;101593.05;1749490;81;20878;-79
2021/11/07 12:33:18;;;;;;;4.65;3.42;;;;;;;13.84;44.19;101589.36;1744712;81;20916;-82
2021/11/07 12:35:54;;;;;;;5.12;3.67;;;;;;;13.76;44.38;101592.46;1744323;82;20924;-82
2021/11/07 12:41:17;;;;;;;7.25;3.47;;;;;;;13.57;44.87;101590.49;1744632;80;22004;-81
2021/11/07 12:44:06;;;;;;;7.85;3.52;;;;;;;13.47;45.37;101591.47;1744610;82;21528;-82
2021/11/07 12:46:48;;;;;;;5.22;3.70;;;;;;;13.37;45.76;101582.40;1744486;81;20893;-81
2021/11/07 12:49:22;;;;;;;4.75;3.27;;;;;;;13.18;46.29;101584.69;1707221;84;21541;-81
2021/11/07 12:51:59;;;;;;;8.65;4.10;;;;;;;12.98;46.76;101582.31;1708757;84;20896;-80
2021/11/07 12:54:38;;;;;;;7.25;4.00;;;;;;;12.83;47.42;101573.01;1708984;84;21735;-80
2021/11/07 12:57:12;;;;;;;4.72;3.30;;;;;;;12.71;47.68;101574.12;1708401;82;20987;-81
2021/11/07 12:59:52;;;;;;;7.25;4.72;;;;;;;12.56;47.95;101559.56;1708573;82;20936;-81
2021/11/07 13:02:29;;;;;;;8.28;4.53;;;;;;;12.39;48.32;101555.17;1709026;82;20931;-81
2021/11/07 13:05:10;;;;;;;4.87;4.37;;;;;;;12.26;48.77;101556.75;1709099;83;20964;-82
2021/11/07 13:07:48;;;;;;;8.40;5.58;;;;;;;12.12;49.43;101552.69;1708894;84;21138;-82
2021/11/07 13:10:29;;;;;;;6.10;4.53;;;;;;;11.99;50.07;101553.77;1708539;83;20936;-81
2021/11/07 13:13:01;;;;;;;7.60;4.08;;;;;;;11.88;50.69;101548.20;1708136;84;21560;-82
2021/11/07 13:15:37;;;;;;;6.17;4.47;;;;;;;11.75;51.11;101550.09;1708550;83;20966;-81